Time;durP1;ratioP1;P1;durP2;ratioP2;P2;SDS_P1;SDS_P2;PMS_P1;PMS_P2;Temp;Humidity;BMP_temperature;BMP_pressure;BME280_temperature;BME280_humidity;BME280_pressure;Samples;Min_cycle;Max_cycle;Signal;HPM_P1;HPM_P2
2022/03/08 00:00:23;;;;;;;5.15;2.72;;;;;;;;;;4976535;28;20026;-63
2022/03/08 00:02:55;;;;;;;4.38;2.45;;;;;;;;;;4976944;28;20035;-63
2022/03/08 00:05:22;;;;;;;4.90;2.40;;;;;;;;;;4974065;28;20375;-63
2022/03/08 00:07:49;;;;;;;5.30;2.83;;;;;;;;;;4975056;28;20036;-63
2022/03/08 00:10:16;;;;;;;4.88;3.08;;;;;;;;;;4973924;28;22119;-64
2022/03/08 00:12:47;;;;;;;5.18;2.60;;;;;;;;;;4974821;28;21951;-63
2022/03/08 00:15:13;;;;;;;3.83;2.33;;;;;;;;;;4956459;28;20600;-63
2022/03/08 00:17:39;;;;;;;7.18;2.22;;;;;;;;;;4990968;28;20034;-63
2022/03/08 00:20:06;;;;;;;8.20;3.53;;;;;;;;;;4973605;28;20041;-63
2022/03/08 00:22:34;;;;;;;4.03;2.67;;;;;;;;;;4990343;28;20033;-63
2022/03/08 00:25:05;;;;;;;4.28;2.50;;;;;;;;;;4975503;28;20049;-64
2022/03/08 00:27:32;;;;;;;8.77;3.40;;;;;;;;;;4974336;28;20034;-64
2022/03/08 00:29:59;;;;;;;5.95;3.95;;;;;;;;;;4974091;28;20053;-64
2022/03/08 00:32:25;;;;;;;7.32;3.25;;;;;;;;;;4991713;28;20035;-64
2022/03/08 00:34:50;;;;;;;7.60;3.33;;;;;;;;;;4974812;28;20025;-65
2022/03/08 00:37:16;;;;;;;7.30;3.38;;;;;;;;;;4958038;28;20677;-63
2022/03/08 00:39:44;;;;;;;4.85;2.58;;;;;;;;;;4972685;28;20787;-64
2022/03/08 00:42:11;;;;;;;8.15;3.45;;;;;;;;;;4974754;28;20034;-62
2022/03/08 00:44:42;;;;;;;8.10;3.83;;;;;;;;;;4989158;28;20105;-63
2022/03/08 00:47:08;;;;;;;5.43;3.05;;;;;;;;;;4972820;28;20104;-63
2022/03/08 00:49:36;;;;;;;5.25;3.13;;;;;;;;;;4973244;28;20122;-63
2022/03/08 00:52:04;;;;;;;6.07;3.05;;;;;;;;;;4973209;28;20060;-62
2022/03/08 00:54:30;;;;;;;7.38;3.60;;;;;;;;;;4959521;28;20650;-63
2022/03/08 00:56:55;;;;;;;7.03;3.15;;;;;;;;;;4975624;28;20062;-63
2022/03/08 00:59:21;;;;;;;8.48;3.60;;;;;;;;;;4974020;28;20046;-62
2022/03/08 01:01:49;;;;;;;11.57;3.13;;;;;;;;;;4974430;28;20161;-63
2022/03/08 01:04:14;;;;;;;5.30;2.97;;;;;;;;;;4958097;28;20049;-63
2022/03/08 01:06:41;;;;;;;5.40;3.25;;;;;;;;;;4975804;28;20046;-63
2022/03/08 01:09:10;;;;;;;5.80;3.28;;;;;;;;;;4972427;28;20033;-63
2022/03/08 01:11:36;;;;;;;6.70;3.22;;;;;;;;;;4969395;28;20038;-63
2022/03/08 01:14:06;;;;;;;6.55;4.07;;;;;;;;;;4972537;28;20046;-64
2022/03/08 01:16:37;;;;;;;9.38;3.63;;;;;;;;;;4967967;28;20030;-63
2022/03/08 01:19:04;;;;;;;6.45;3.38;;;;;;;;;;4972948;28;20030;-63
2022/03/08 01:21:31;;;;;;;6.97;3.15;;;;;;;;;;4971334;28;20149;-63
2022/03/08 01:24:00;;;;;;;8.43;3.67;;;;;;;;;;4973425;28;20084;-63
2022/03/08 01:26:27;;;;;;;8.82;3.47;;;;;;;;;;4972349;28;20527;-63
2022/03/08 01:28:53;;;;;;;10.27;4.35;;;;;;;;;;4972856;28;20038;-63
2022/03/08 01:31:21;;;;;;;5.80;3.95;;;;;;;;;;4944525;28;20030;-63
2022/03/08 01:33:46;;;;;;;13.52;3.83;;;;;;;;;;4956769;28;20034;-63
2022/03/08 01:36:12;;;;;;;11.20;4.30;;;;;;;;;;4968791;28;20034;-63
2022/03/08 01:38:41;;;;;;;8.15;4.32;;;;;;;;;;4974692;28;20026;-63
2022/03/08 01:41:12;;;;;;;10.20;4.07;;;;;;;;;;4988326;28;20109;-63
2022/03/08 01:43:39;;;;;;;8.18;4.15;;;;;;;;;;4956553;28;20042;-64
2022/03/08 01:46:10;;;;;;;8.48;3.88;;;;;;;;;;4989331;28;20627;-63
2022/03/08 01:48:38;;;;;;;6.93;4.15;;;;;;;;;;4972288;28;20176;-63
2022/03/08 01:51:03;;;;;;;14.27;4.85;;;;;;;;;;4971622;28;20513;-64
2022/03/08 01:53:29;;;;;;;6.70;3.47;;;;;;;;;;4986939;28;20164;-64
2022/03/08 01:55:55;;;;;;;12.35;4.88;;;;;;;;;;4988607;28;20069;-64
2022/03/08 01:58:20;;;;;;;9.55;4.90;;;;;;;;;;4985033;28;20038;-64
2022/03/08 02:00:46;;;;;;;7.18;4.15;;;;;;;;;;4972591;28;20038;-63
2022/03/08 02:03:14;;;;;;;9.23;4.75;;;;;;;;;;4971021;28;20161;-63
2022/03/08 02:05:40;;;;;;;7.40;4.22;;;;;;;;;;4973948;28;20037;-64
2022/03/08 02:08:08;;;;;;;8.68;4.60;;;;;;;;;;4976033;28;20029;-64
2022/03/08 02:10:34;;;;;;;8.02;4.28;;;;;;;;;;4980524;28;20034;-63
2022/03/08 02:13:00;;;;;;;9.30;4.93;;;;;;;;;;4979828;28;20505;-63
2022/03/08 02:15:27;;;;;;;11.32;5.35;;;;;;;;;;4979542;28;20080;-64
2022/03/08 02:17:57;;;;;;;11.32;4.65;;;;;;;;;;4979781;28;20034;-64
2022/03/08 02:20:23;;;;;;;11.57;4.32;;;;;;;;;;4965848;28;20030;-63
2022/03/08 02:22:49;;;;;;;7.60;4.70;;;;;;;;;;4978683;28;20152;-66
2022/03/08 02:25:15;;;;;;;7.72;4.85;;;;;;;;;;4979834;28;20038;-63
2022/03/08 02:27:44;;;;;;;15.75;6.38;;;;;;;;;;4980684;28;20512;-64
2022/03/08 02:30:11;;;;;;;15.82;5.45;;;;;;;;;;4982021;28;20405;-63
2022/03/08 02:32:37;;;;;;;15.15;5.40;;;;;;;;;;4979632;28;20054;-64
2022/03/08 02:35:04;;;;;;;11.07;6.35;;;;;;;;;;4963723;28;20312;-63
2022/03/08 02:37:36;;;;;;;10.68;5.40;;;;;;;;;;4979770;28;20022;-63
2022/03/08 02:40:03;;;;;;;12.23;5.90;;;;;;;;;;4995223;28;20033;-64
2022/03/08 02:42:28;;;;;;;12.20;5.63;;;;;;;;;;4975039;28;20045;-64
2022/03/08 02:44:54;;;;;;;10.70;5.82;;;;;;;;;;4979756;28;20038;-64
2022/03/08 02:47:21;;;;;;;7.78;5.03;;;;;;;;;;4979087;28;20085;-64
2022/03/08 02:49:46;;;;;;;19.83;7.18;;;;;;;;;;4978268;28;20050;-65
2022/03/08 02:52:12;;;;;;;12.65;5.43;;;;;;;;;;4979238;28;20076;-63
2022/03/08 02:54:37;;;;;;;14.13;5.95;;;;;;;;;;4993588;28;20188;-64
2022/03/08 02:57:03;;;;;;;14.20;6.28;;;;;;;;;;4976479;28;20030;-64
2022/03/08 02:59:28;;;;;;;13.85;6.22;;;;;;;;;;4979301;28;20034;-63
2022/03/08 03:01:56;;;;;;;14.13;6.40;;;;;;;;;;4978256;28;20030;-64
2022/03/08 03:04:24;;;;;;;10.32;5.32;;;;;;;;;;4980522;28;20032;-63
2022/03/08 03:06:52;;;;;;;15.10;6.82;;;;;;;;;;4978133;28;20198;-64
2022/03/08 03:09:18;;;;;;;14.38;6.03;;;;;;;;;;4948740;28;20038;-63
2022/03/08 03:11:43;;;;;;;12.23;5.93;;;;;;;;;;4981464;28;20026;-64
2022/03/08 03:14:09;;;;;;;16.92;6.78;;;;;;;;;;4966382;28;20042;-64
2022/03/08 03:16:34;;;;;;;15.02;5.95;;;;;;;;;;4979541;28;20025;-64
2022/03/08 03:19:00;;;;;;;12.15;5.72;;;;;;;;;;4977888;28;20046;-64
2022/03/08 03:21:26;;;;;;;11.57;5.47;;;;;;;;;;4976303;28;20660;-64
2022/03/08 03:23:51;;;;;;;10.68;5.40;;;;;;;;;;4961928;28;20074;-64
2022/03/08 03:26:17;;;;;;;11.93;6.22;;;;;;;;;;4974460;28;21937;-64
2022/03/08 03:28:43;;;;;;;15.25;5.93;;;;;;;;;;4958380;28;20573;-64
2022/03/08 03:31:09;;;;;;;11.70;6.22;;;;;;;;;;4990092;28;20059;-63
2022/03/08 03:33:37;;;;;;;13.07;6.40;;;;;;;;;;4974815;28;20192;-65
2022/03/08 03:36:03;;;;;;;12.70;6.20;;;;;;;;;;4963682;28;20033;-65
2022/03/08 03:38:29;;;;;;;12.30;7.18;;;;;;;;;;4973115;28;20501;-64
2022/03/08 03:40:55;;;;;;;14.32;6.70;;;;;;;;;;4975461;28;20068;-63
2022/03/08 03:43:22;;;;;;;14.63;6.82;;;;;;;;;;4971783;28;20065;-64
2022/03/08 03:45:50;;;;;;;20.35;7.80;;;;;;;;;;4975592;28;20433;-63
2022/03/08 03:48:16;;;;;;;12.48;6.72;;;;;;;;;;4974625;28;20455;-64
2022/03/08 03:50:42;;;;;;;12.00;6.40;;;;;;;;;;4971974;28;20026;-64
2022/03/08 03:53:08;;;;;;;12.13;6.63;;;;;;;;;;4974703;28;20081;-64
2022/03/08 03:55:34;;;;;;;12.25;6.40;;;;;;;;;;4975592;28;20033;-64
2022/03/08 03:58:00;;;;;;;19.60;7.70;;;;;;;;;;4975076;28;20564;-64
2022/03/08 04:00:29;;;;;;;19.50;7.30;;;;;;;;;;4969247;28;20636;-64
2022/03/08 04:02:55;;;;;;;13.55;6.95;;;;;;;;;;4976447;28;20034;-64
2022/03/08 04:05:21;;;;;;;15.98;7.50;;;;;;;;;;4989994;28;20048;-65
2022/03/08 04:07:47;;;;;;;17.23;7.75;;;;;;;;;;4974415;28;20112;-64
2022/03/08 04:10:14;;;;;;;15.13;7.22;;;;;;;;;;4971277;28;20034;-64
2022/03/08 04:12:41;;;;;;;14.30;6.25;;;;;;;;;;4975044;28;20483;-64
2022/03/08 04:15:07;;;;;;;17.45;7.72;;;;;;;;;;4987293;28;20030;-64
2022/03/08 04:17:32;;;;;;;17.52;7.47;;;;;;;;;;4973203;28;20038;-64
2022/03/08 04:19:58;;;;;;;14.85;6.82;;;;;;;;;;4974366;28;20504;-64
2022/03/08 04:22:24;;;;;;;15.30;7.38;;;;;;;;;;4974882;28;20034;-64
2022/03/08 04:24:50;;;;;;;17.55;7.07;;;;;;;;;;4974223;28;20108;-64
2022/03/08 04:27:16;;;;;;;12.27;6.80;;;;;;;;;;4973046;28;20034;-66
2022/03/08 04:29:42;;;;;;;15.77;8.10;;;;;;;;;;4973112;28;20058;-64
2022/03/08 04:32:08;;;;;;;17.35;8.48;;;;;;;;;;4974015;28;20026;-65
2022/03/08 04:34:33;;;;;;;18.02;6.75;;;;;;;;;;4972445;28;20030;-64
2022/03/08 04:37:00;;;;;;;15.93;6.68;;;;;;;;;;4975704;28;20060;-64
2022/03/08 04:39:25;;;;;;;17.08;6.53;;;;;;;;;;4974816;28;20794;-64
2022/03/08 04:41:51;;;;;;;14.23;7.28;;;;;;;;;;4972362;28;20041;-63
2022/03/08 04:44:17;;;;;;;20.45;8.55;;;;;;;;;;4975140;28;20145;-65
2022/03/08 04:46:42;;;;;;;15.13;7.10;;;;;;;;;;4975066;28;20053;-65
2022/03/08 04:49:08;;;;;;;12.05;6.07;;;;;;;;;;4974776;28;20044;-64
2022/03/08 04:51:34;;;;;;;18.75;8.27;;;;;;;;;;4988058;28;20065;-64
2022/03/08 04:53:59;;;;;;;16.90;7.65;;;;;;;;;;4975428;28;20041;-64
2022/03/08 04:56:25;;;;;;;27.73;8.20;;;;;;;;;;4972730;28;20560;-64
2022/03/08 04:58:52;;;;;;;19.83;8.27;;;;;;;;;;4974643;28;20064;-65
2022/03/08 05:01:18;;;;;;;15.95;6.80;;;;;;;;;;4962744;28;20038;-63
2022/03/08 05:03:43;;;;;;;21.48;7.97;;;;;;;;;;4974192;28;20029;-64
2022/03/08 05:06:09;;;;;;;18.77;6.22;;;;;;;;;;4989802;28;20030;-64
2022/03/08 05:08:35;;;;;;;15.20;7.63;;;;;;;;;;4975928;28;21136;-64
2022/03/08 05:11:01;;;;;;;14.00;7.38;;;;;;;;;;4972271;28;20034;-64
2022/03/08 05:13:31;;;;;;;18.67;7.55;;;;;;;;;;4988397;28;20509;-64
2022/03/08 05:15:57;;;;;;;16.52;7.38;;;;;;;;;;4957936;28;20049;-64
2022/03/08 05:18:22;;;;;;;16.60;7.90;;;;;;;;;;4972255;28;20022;-65
2022/03/08 05:20:49;;;;;;;18.02;7.68;;;;;;;;;;4976712;28;20041;-65
2022/03/08 05:23:14;;;;;;;21.65;7.82;;;;;;;;;;4975955;28;20018;-65
2022/03/08 05:25:41;;;;;;;16.90;7.40;;;;;;;;;;4971854;28;20217;-65
2022/03/08 05:28:09;;;;;;;15.50;7.88;;;;;;;;;;4973826;28;20831;-65
2022/03/08 05:30:37;;;;;;;20.48;7.95;;;;;;;;;;4973641;28;20568;-65
2022/03/08 05:33:02;;;;;;;18.92;8.07;;;;;;;;;;4972644;28;20122;-63
2022/03/08 05:35:28;;;;;;;20.83;9.20;;;;;;;;;;4972944;28;21632;-64
2022/03/08 05:37:54;;;;;;;15.00;7.05;;;;;;;;;;4976505;28;20026;-65
2022/03/08 05:40:20;;;;;;;18.38;8.38;;;;;;;;;;4972716;28;20034;-64
2022/03/08 05:42:46;;;;;;;18.73;7.97;;;;;;;;;;4973792;28;21870;-64
2022/03/08 05:45:12;;;;;;;18.98;7.97;;;;;;;;;;4973199;28;20034;-64
2022/03/08 05:47:38;;;;;;;19.55;7.78;;;;;;;;;;4972207;28;21591;-64
2022/03/08 05:50:05;;;;;;;13.85;7.50;;;;;;;;;;4974565;28;20677;-64
2022/03/08 05:52:31;;;;;;;19.45;8.15;;;;;;;;;;4973968;28;20036;-65
2022/03/08 05:54:57;;;;;;;17.20;7.63;;;;;;;;;;4978003;28;20026;-64
2022/03/08 05:57:22;;;;;;;21.00;7.88;;;;;;;;;;4972394;28;20038;-65
2022/03/08 05:59:49;;;;;;;19.52;9.02;;;;;;;;;;4974440;28;20026;-64
2022/03/08 06:02:16;;;;;;;15.73;7.65;;;;;;;;;;4973179;28;20042;-64
2022/03/08 06:04:47;;;;;;;17.17;7.93;;;;;;;;;;4973057;28;20054;-64
2022/03/08 06:07:13;;;;;;;15.15;7.95;;;;;;;;;;4971765;28;20053;-66
2022/03/08 06:09:39;;;;;;;16.60;8.75;;;;;;;;;;4971551;28;20456;-65
2022/03/08 06:12:04;;;;;;;20.45;8.20;;;;;;;;;;4974326;28;20876;-66
2022/03/08 06:14:30;;;;;;;20.98;8.38;;;;;;;;;;4974819;28;20049;-66
2022/03/08 06:16:56;;;;;;;18.98;8.80;;;;;;;;;;4971690;28;21838;-65
2022/03/08 06:19:22;;;;;;;18.75;7.00;;;;;;;;;;4972450;28;20033;-65
2022/03/08 06:21:47;;;;;;;11.60;6.40;;;;;;;;;;4974134;28;20841;-65
2022/03/08 06:24:13;;;;;;;26.80;7.95;;;;;;;;;;4971944;28;20041;-67
2022/03/08 06:26:39;;;;;;;18.48;7.85;;;;;;;;;;4988042;28;21948;-66
2022/03/08 06:29:06;;;;;;;17.13;7.53;;;;;;;;;;4970855;28;20032;-65
2022/03/08 06:31:35;;;;;;;21.90;8.73;;;;;;;;;;4973792;28;20033;-64
2022/03/08 06:34:01;;;;;;;22.00;8.88;;;;;;;;;;4971687;28;20034;-65
2022/03/08 06:36:27;;;;;;;16.15;8.32;;;;;;;;;;4970052;28;20022;-66
2022/03/08 06:38:53;;;;;;;27.23;9.55;;;;;;;;;;4958300;28;20041;-64
2022/03/08 06:41:19;;;;;;;21.67;8.07;;;;;;;;;;4988718;28;20498;-64
2022/03/08 06:47:20;;;;;;;16.27;8.27;;;;;;;;;;4973035;28;20162;-66
2022/03/08 06:49:47;;;;;;;18.17;8.63;;;;;;;;;;4971607;28;20050;-64
2022/03/08 06:52:13;;;;;;;13.88;7.53;;;;;;;;;;4987546;28;20040;-65
2022/03/08 06:54:41;;;;;;;18.20;8.10;;;;;;;;;;4974421;28;20037;-65
2022/03/08 06:57:12;;;;;;;20.70;8.70;;;;;;;;;;4972693;28;20650;-64
2022/03/08 06:59:40;;;;;;;20.40;8.68;;;;;;;;;;4956912;28;20504;-64
2022/03/08 07:02:08;;;;;;;14.02;8.05;;;;;;;;;;4972085;28;20602;-66
2022/03/08 07:04:34;;;;;;;21.02;8.25;;;;;;;;;;4976028;28;20038;-65
2022/03/08 07:07:00;;;;;;;13.68;7.32;;;;;;;;;;4956431;28;20029;-65
2022/03/08 07:09:26;;;;;;;11.05;6.30;;;;;;;;;;4988022;28;20065;-66
2022/03/08 07:11:53;;;;;;;16.92;8.52;;;;;;;;;;4972096;28;20030;-66
2022/03/08 07:14:19;;;;;;;14.77;6.90;;;;;;;;;;4976243;28;20500;-65
2022/03/08 07:16:45;;;;;;;16.38;7.25;;;;;;;;;;4975248;28;20030;-64
2022/03/08 07:19:12;;;;;;;18.15;7.30;;;;;;;;;;4975294;28;20042;-65
2022/03/08 07:21:37;;;;;;;13.63;6.65;;;;;;;;;;4975363;28;20258;-64
2022/03/08 07:24:03;;;;;;;11.88;6.35;;;;;;;;;;4975891;28;20470;-65
2022/03/08 07:26:29;;;;;;;13.07;6.65;;;;;;;;;;4960389;28;20045;-65
2022/03/08 07:28:55;;;;;;;12.82;6.22;;;;;;;;;;4972610;28;20118;-65
2022/03/08 07:31:21;;;;;;;11.70;6.28;;;;;;;;;;4976966;28;20074;-65
2022/03/08 07:33:47;;;;;;;14.60;6.20;;;;;;;;;;4977032;28;20149;-64
2022/03/08 07:36:15;;;;;;;15.32;6.78;;;;;;;;;;4975808;28;20030;-65
2022/03/08 07:38:43;;;;;;;12.25;6.70;;;;;;;;;;4980213;28;20034;-64
2022/03/08 07:41:08;;;;;;;16.30;5.72;;;;;;;;;;4975892;28;20030;-65
2022/03/08 07:43:34;;;;;;;11.80;5.90;;;;;;;;;;4957967;28;20497;-64
2022/03/08 07:46:00;;;;;;;12.15;6.13;;;;;;;;;;4988100;28;20619;-64
2022/03/08 07:48:27;;;;;;;14.13;6.15;;;;;;;;;;4989001;28;20040;-64
2022/03/08 07:50:52;;;;;;;13.43;6.00;;;;;;;;;;4974571;28;20034;-64
2022/03/08 07:53:18;;;;;;;9.57;5.75;;;;;;;;;;4973178;28;20531;-64
2022/03/08 07:55:44;;;;;;;13.18;5.85;;;;;;;;;;4950249;28;20042;-64
2022/03/08 07:58:12;;;;;;;12.60;5.07;;;;;;;;;;4974545;28;20031;-65
2022/03/08 08:00:39;;;;;;;10.98;5.55;;;;;;;;;;4977397;28;20520;-64
2022/03/08 08:03:06;;;;;;;12.48;5.40;;;;;;;;;;4976191;28;20038;-65
2022/03/08 08:05:33;;;;;;;9.75;5.28;;;;;;;;;;4972898;28;20049;-64
2022/03/08 08:08:02;;;;;;;13.00;5.82;;;;;;;;;;4974570;28;20404;-64
2022/03/08 08:10:30;;;;;;;9.35;6.13;;;;;;;;;;4975705;28;22872;-64
2022/03/08 08:12:56;;;;;;;10.88;6.28;;;;;;;;;;4984764;28;20064;-64
2022/03/08 08:15:26;;;;;;;10.35;5.43;;;;;;;;;;4951557;28;20037;-64
2022/03/08 08:17:52;;;;;;;9.13;5.32;;;;;;;;;;4970861;28;20738;-64
2022/03/08 08:20:18;;;;;;;10.25;5.25;;;;;;;;;;4971915;28;20040;-64
2022/03/08 08:22:45;;;;;;;11.63;5.45;;;;;;;;;;4971935;28;20026;-64
2022/03/08 08:25:11;;;;;;;8.40;4.85;;;;;;;;;;4974243;28;20049;-63
2022/03/08 08:27:38;;;;;;;10.50;5.45;;;;;;;;;;4972966;28;20189;-63
2022/03/08 08:30:06;;;;;;;10.77;5.07;;;;;;;;;;4973293;28;20037;-65
2022/03/08 08:32:31;;;;;;;11.15;4.85;;;;;;;;;;4973940;28;20685;-64
2022/03/08 08:34:57;;;;;;;10.65;5.47;;;;;;;;;;4974778;28;20036;-64
2022/03/08 08:37:22;;;;;;;10.27;5.25;;;;;;;;;;4972318;28;20037;-62
2022/03/08 08:39:51;;;;;;;17.38;5.47;;;;;;;;;;4973485;28;20028;-63
2022/03/08 08:42:16;;;;;;;12.48;5.60;;;;;;;;;;4974499;28;20113;-62
2022/03/08 08:44:46;;;;;;;11.05;5.30;;;;;;;;;;4974810;28;20160;-63
2022/03/08 08:47:12;;;;;;;8.45;4.43;;;;;;;;;;4974836;28;20077;-62
2022/03/08 08:49:39;;;;;;;9.60;5.65;;;;;;;;;;4969413;28;20033;-62
2022/03/08 08:52:07;;;;;;;10.52;5.53;;;;;;;;;;4970399;28;20096;-62
2022/03/08 08:54:35;;;;;;;9.68;4.43;;;;;;;;;;4975589;28;20033;-65
2022/03/08 08:57:06;;;;;;;9.65;4.93;;;;;;;;;;4975278;28;20137;-63
2022/03/08 08:59:31;;;;;;;10.18;4.80;;;;;;;;;;4972417;28;20045;-64
2022/03/08 09:01:58;;;;;;;6.68;4.70;;;;;;;;;;4975973;28;20050;-63
2022/03/08 09:04:23;;;;;;;8.85;4.63;;;;;;;;;;4974042;28;20044;-63
2022/03/08 09:06:48;;;;;;;8.77;5.55;;;;;;;;;;4972711;28;20401;-63
2022/03/08 09:09:15;;;;;;;10.05;5.10;;;;;;;;;;4971335;28;20033;-63
2022/03/08 09:11:40;;;;;;;9.45;4.82;;;;;;;;;;4973360;28;20095;-64
2022/03/08 09:14:06;;;;;;;7.78;4.90;;;;;;;;;;4969134;28;20054;-63
2022/03/08 09:16:32;;;;;;;10.15;5.03;;;;;;;;;;4956241;28;20616;-64
2022/03/08 09:18:58;;;;;;;7.80;5.18;;;;;;;;;;4955041;28;20056;-63
2022/03/08 09:21:23;;;;;;;11.15;4.65;;;;;;;;;;4972002;28;20038;-64
2022/03/08 09:23:49;;;;;;;7.40;4.70;;;;;;;;;;4988247;28;20049;-64
2022/03/08 09:26:14;;;;;;;7.03;4.68;;;;;;;;;;4956793;28;20073;-63
2022/03/08 09:28:40;;;;;;;11.52;4.53;;;;;;;;;;4953940;28;20041;-64
2022/03/08 09:31:07;;;;;;;10.05;4.60;;;;;;;;;;4974302;28;20030;-65
2022/03/08 09:33:33;;;;;;;8.80;4.75;;;;;;;;;;4973062;28;21972;-64
2022/03/08 09:35:59;;;;;;;9.32;4.43;;;;;;;;;;4957645;28;20111;-64
2022/03/08 09:38:26;;;;;;;6.15;4.40;;;;;;;;;;4958673;28;20034;-63
2022/03/08 09:40:56;;;;;;;11.98;4.63;;;;;;;;;;4973446;28;20057;-63
2022/03/08 09:43:24;;;;;;;7.82;3.90;;;;;;;;;;4989882;28;20064;-65
2022/03/08 09:45:55;;;;;;;8.82;4.13;;;;;;;;;;4990609;28;20056;-63
2022/03/08 09:48:20;;;;;;;8.23;4.85;;;;;;;;;;4972259;28;20045;-63
2022/03/08 09:50:46;;;;;;;6.95;4.25;;;;;;;;;;4974258;28;20042;-63
2022/03/08 09:53:16;;;;;;;6.22;4.38;;;;;;;;;;4973888;28;20179;-63
2022/03/08 09:55:42;;;;;;;8.80;4.18;;;;;;;;;;4975916;28;20921;-63
2022/03/08 09:58:07;;;;;;;7.38;4.28;;;;;;;;;;4975623;28;20112;-65
2022/03/08 10:00:33;;;;;;;8.27;3.95;;;;;;;;;;4958377;28;20034;-63
2022/03/08 10:02:59;;;;;;;6.40;4.10;;;;;;;;;;4977221;28;20053;-65
2022/03/08 10:05:41;;;;;;;5.50;3.80;;;;;;;;;;4975528;28;20057;-63
2022/03/08 10:08:18;;;;;;;8.05;4.20;;;;;;;;;;4977462;28;20113;-64
2022/03/08 10:10:45;;;;;;;9.13;4.18;;;;;;;;;;4976134;28;20085;-64
2022/03/08 10:13:19;;;;;;;5.45;3.70;;;;;;;;;;4972738;28;20049;-63
2022/03/08 10:16:02;;;;;;;6.07;3.90;;;;;;;;;;4977091;28;20232;-64
2022/03/08 10:18:32;;;;;;;9.43;3.47;;;;;;;;;;4990495;28;20035;-63
2022/03/08 10:21:00;;;;;;;13.02;3.80;;;;;;;;;;4976871;28;20065;-63
2022/03/08 10:23:25;;;;;;;5.63;3.47;;;;;;;;;;4955448;28;20040;-64
2022/03/08 10:25:51;;;;;;;8.85;3.38;;;;;;;;;;4973278;28;20038;-64
2022/03/08 10:28:19;;;;;;;8.10;3.28;;;;;;;;;;4988945;28;20737;-64
2022/03/08 10:30:50;;;;;;;4.13;2.75;;;;;;;;;;4975270;28;20030;-62
2022/03/08 10:33:19;;;;;;;7.15;3.45;;;;;;;;;;4977240;28;20869;-62
2022/03/08 10:35:53;;;;;;;4.68;3.50;;;;;;;;;;4980314;28;20168;-63
2022/03/08 10:38:21;;;;;;;4.55;3.17;;;;;;;;;;4979640;28;20470;-62
2022/03/08 10:40:52;;;;;;;6.90;3.90;;;;;;;;;;4979798;28;20137;-62
2022/03/08 10:43:27;;;;;;;4.93;3.10;;;;;;;;;;4981414;28;20018;-64
2022/03/08 10:45:55;;;;;;;5.15;3.05;;;;;;;;;;4977699;28;20044;-63
2022/03/08 10:48:25;;;;;;;5.53;3.45;;;;;;;;;;4978001;28;20034;-62
2022/03/08 10:50:51;;;;;;;5.57;4.20;;;;;;;;;;4993054;28;20044;-62
2022/03/08 10:53:23;;;;;;;5.88;3.22;;;;;;;;;;4979617;28;20429;-62
2022/03/08 10:55:49;;;;;;;6.15;2.85;;;;;;;;;;4992803;28;20077;-62
2022/03/08 10:58:15;;;;;;;4.78;2.92;;;;;;;;;;4964865;28;20032;-62
2022/03/08 11:00:42;;;;;;;5.18;2.97;;;;;;;;;;4976898;28;20065;-63
2022/03/08 11:03:11;;;;;;;4.05;3.00;;;;;;;;;;4978355;28;21087;-63
2022/03/08 11:05:43;;;;;;;3.83;3.08;;;;;;;;;;4964022;28;20042;-64
2022/03/08 11:08:09;;;;;;;3.72;2.63;;;;;;;;;;4978858;28;20061;-62
2022/03/08 11:10:38;;;;;;;3.92;2.75;;;;;;;;;;4978264;28;20088;-63
2022/03/08 11:13:04;;;;;;;4.20;2.70;;;;;;;;;;4977240;28;20045;-63
2022/03/08 11:15:35;;;;;;;4.40;2.80;;;;;;;;;;4976570;28;20155;-62
2022/03/08 11:18:04;;;;;;;3.30;2.42;;;;;;;;;;4992825;28;20029;-63
2022/03/08 11:20:30;;;;;;;4.18;2.60;;;;;;;;;;4993879;28;22587;-63
2022/03/08 11:22:58;;;;;;;5.00;2.42;;;;;;;;;;4978848;28;20033;-63
2022/03/08 11:25:30;;;;;;;3.13;2.45;;;;;;;;;;4963121;28;20030;-63
2022/03/08 11:27:55;;;;;;;4.38;2.50;;;;;;;;;;4977590;28;20122;-64
2022/03/08 11:30:29;;;;;;;4.57;2.90;;;;;;;;;;4975278;28;20030;-64
2022/03/08 11:33:10;;;;;;;4.10;2.50;;;;;;;;;;4978691;28;20100;-63
2022/03/08 11:35:55;;;;;;;4.47;2.80;;;;;;;;;;4976566;28;20037;-64
2022/03/08 11:38:20;;;;;;;3.60;2.75;;;;;;;;;;4977739;28;20865;-63
2022/03/08 11:40:50;;;;;;;6.13;2.50;;;;;;;;;;4976703;28;20034;-63
2022/03/08 11:43:16;;;;;;;4.35;2.20;;;;;;;;;;4974829;28;20044;-64
2022/03/08 11:45:41;;;;;;;2.95;2.30;;;;;;;;;;4977864;28;20038;-63
2022/03/08 11:48:09;;;;;;;4.40;2.50;;;;;;;;;;4976648;28;20677;-62
2022/03/08 11:50:44;;;;;;;4.30;3.15;;;;;;;;;;4976288;28;20037;-62
2022/03/08 11:53:11;;;;;;;5.60;3.85;;;;;;;;;;4991794;28;22261;-62
2022/03/08 11:55:48;;;;;;;4.40;2.60;;;;;;;;;;4976440;28;20793;-62
2022/03/08 11:58:19;;;;;;;4.40;2.45;;;;;;;;;;4976545;28;20049;-63
2022/03/08 12:00:48;;;;;;;4.60;2.40;;;;;;;;;;4976681;28;20030;-63
2022/03/08 12:03:15;;;;;;;2.97;2.55;;;;;;;;;;4977852;28;20030;-63
2022/03/08 12:05:44;;;;;;;3.97;2.30;;;;;;;;;;4958887;28;20037;-63
2022/03/08 12:08:21;;;;;;;5.60;2.83;;;;;;;;;;4977123;28;20044;-63
2022/03/08 12:10:47;;;;;;;3.63;2.10;;;;;;;;;;4992665;28;20048;-62
2022/03/08 12:13:13;;;;;;;3.53;2.30;;;;;;;;;;4977392;28;20058;-62
2022/03/08 12:15:57;;;;;;;2.55;2.20;;;;;;;;;;4977931;28;20065;-63
2022/03/08 12:18:52;;;;;;;4.22;2.55;;;;;;;;;;4976401;28;20110;-65
2022/03/08 12:21:17;;;;;;;3.35;2.38;;;;;;;;;;4975338;28;20042;-65
2022/03/08 12:23:55;;;;;;;4.65;2.45;;;;;;;;;;4975802;28;20041;-65
2022/03/08 12:26:24;;;;;;;3.47;2.42;;;;;;;;;;4992936;28;20212;-62
2022/03/08 12:29:03;;;;;;;6.32;2.83;;;;;;;;;;4976071;28;20092;-63
2022/03/08 12:31:29;;;;;;;5.63;2.53;;;;;;;;;;4975656;28;20030;-63
2022/03/08 12:34:02;;;;;;;3.15;2.20;;;;;;;;;;4975492;28;20068;-64
2022/03/08 12:36:28;;;;;;;3.03;2.15;;;;;;;;;;4976847;28;20161;-64
2022/03/08 12:38:54;;;;;;;6.15;2.28;;;;;;;;;;4975292;28;20021;-64
2022/03/08 12:41:25;;;;;;;2.10;1.73;;;;;;;;;;4980328;28;20088;-64
2022/03/08 12:44:00;;;;;;;6.57;2.28;;;;;;;;;;4975161;28;20034;-63
2022/03/08 12:46:27;;;;;;;4.20;2.03;;;;;;;;;;4976600;28;20038;-65
2022/03/08 12:48:53;;;;;;;2.70;2.10;;;;;;;;;;4975140;28;20140;-67
2022/03/08 12:51:26;;;;;;;2.47;1.75;;;;;;;;;;4975001;28;20066;-62
2022/03/08 12:53:58;;;;;;;4.23;2.37;;;;;;;;;;4957740;28;20049;-63
2022/03/08 12:56:25;;;;;;;4.22;2.53;;;;;;;;;;4975978;28;20297;-64
2022/03/08 12:58:51;;;;;;;8.18;2.03;;;;;;;;;;4990474;28;20061;-64
2022/03/08 13:01:20;;;;;;;5.55;2.17;;;;;;;;;;4977547;28;20101;-65
2022/03/08 13:03:49;;;;;;;5.40;2.05;;;;;;;;;;4977529;28;20420;-64
2022/03/08 13:06:18;;;;;;;2.75;2.30;;;;;;;;;;4976028;28;20061;-63
2022/03/08 13:08:47;;;;;;;2.53;1.98;;;;;;;;;;4974482;28;20029;-63
2022/03/08 13:11:14;;;;;;;3.58;2.30;;;;;;;;;;4970559;28;20060;-64
2022/03/08 13:13:43;;;;;;;4.53;2.80;;;;;;;;;;4958080;28;20699;-63
2022/03/08 13:16:10;;;;;;;3.00;2.05;;;;;;;;;;4992336;28;20414;-62
2022/03/08 13:18:36;;;;;;;3.45;2.08;;;;;;;;;;4975541;28;20034;-63
2022/03/08 13:21:06;;;;;;;2.17;1.77;;;;;;;;;;4992322;28;20034;-63
2022/03/08 13:23:35;;;;;;;3.60;1.95;;;;;;;;;;4989698;28;20405;-63
2022/03/08 13:26:04;;;;;;;8.40;2.28;;;;;;;;;;4976279;28;20049;-62
2022/03/08 13:28:31;;;;;;;2.53;1.80;;;;;;;;;;4975530;28;20129;-63
2022/03/08 13:30:58;;;;;;;3.47;1.90;;;;;;;;;;4975584;28;20042;-63
2022/03/08 13:33:24;;;;;;;4.60;2.22;;;;;;;;;;4990779;28;20495;-64
2022/03/08 13:35:52;;;;;;;3.15;2.28;;;;;;;;;;4991990;28;21672;-65
2022/03/08 13:38:21;;;;;;;5.05;2.15;;;;;;;;;;4974684;28;20022;-64
2022/03/08 13:40:50;;;;;;;2.63;2.10;;;;;;;;;;4972641;28;20041;-64
2022/03/08 13:43:17;;;;;;;2.83;2.30;;;;;;;;;;4974608;28;20434;-64
2022/03/08 13:45:45;;;;;;;6.45;2.13;;;;;;;;;;4990915;28;20034;-63
2022/03/08 13:48:12;;;;;;;3.75;2.08;;;;;;;;;;4976147;28;20030;-65
2022/03/08 13:50:38;;;;;;;3.13;2.10;;;;;;;;;;4970145;28;20525;-63
2022/03/08 13:53:05;;;;;;;3.55;2.40;;;;;;;;;;4975346;28;20030;-63
2022/03/08 13:55:31;;;;;;;2.60;2.38;;;;;;;;;;4972648;28;21169;-63
2022/03/08 13:58:02;;;;;;;3.13;2.67;;;;;;;;;;4975145;28;20029;-64
2022/03/08 14:00:32;;;;;;;4.07;2.38;;;;;;;;;;4976188;28;20749;-63
2022/03/08 14:03:01;;;;;;;5.70;2.78;;;;;;;;;;4988468;28;20026;-64
2022/03/08 14:05:28;;;;;;;3.47;2.58;;;;;;;;;;4975406;28;20707;-65
2022/03/08 14:07:57;;;;;;;4.75;2.67;;;;;;;;;;4960742;28;20104;-62
2022/03/08 14:10:24;;;;;;;3.85;2.40;;;;;;;;;;4973951;28;20633;-64
2022/03/08 14:12:50;;;;;;;3.45;2.10;;;;;;;;;;4988124;28;20117;-63
2022/03/08 14:15:17;;;;;;;3.22;2.40;;;;;;;;;;4975106;28;20043;-64
2022/03/08 14:17:47;;;;;;;3.58;2.28;;;;;;;;;;4991672;28;20497;-64
2022/03/08 14:20:14;;;;;;;3.38;2.15;;;;;;;;;;4990253;28;20756;-64
2022/03/08 14:23:01;;;;;;;2.20;2.00;;;;;;;;;;4974354;28;20034;-64
2022/03/08 14:25:29;;;;;;;2.33;1.95;;;;;;;;;;4971304;28;20153;-64
2022/03/08 14:27:59;;;;;;;2.80;2.03;;;;;;;;;;4987121;28;20037;-66
2022/03/08 14:30:28;;;;;;;2.47;2.00;;;;;;;;;;4975132;28;20041;-64
2022/03/08 14:33:06;;;;;;;10.45;2.03;;;;;;;;;;4975969;28;20041;-65
2022/03/08 14:35:34;;;;;;;2.55;1.95;;;;;;;;;;4975093;28;20504;-64
2022/03/08 14:38:06;;;;;;;3.55;2.10;;;;;;;;;;4973589;28;20034;-66
2022/03/08 14:40:39;;;;;;;9.70;1.95;;;;;;;;;;4971357;28;20072;-64